sensor_id;sensor_type;location;lat;lon;timestamp;pressure;altitude;pressure_sealevel;temperature;humidity
50933;BME280;36921;49.006;9.292;2023-05-09T00:01:32;99093.13;;;12.92;100.00
50933;BME280;36921;49.006;9.292;2023-05-09T00:03:58;99099.22;;;12.81;100.00
50933;BME280;36921;49.006;9.292;2023-05-09T00:06:25;99098.56;;;12.79;100.00
50933;BME280;36921;49.006;9.292;2023-05-09T00:08:52;99097.31;;;12.62;100.00
50933;BME280;36921;49.006;9.292;2023-05-09T00:11:17;99084.19;;;12.45;100.00
50933;BME280;36921;49.006;9.292;2023-05-09T00:13:42;99100.06;;;12.42;100.00
50933;BME280;36921;49.006;9.292;2023-05-09T00:16:08;99088.34;;;12.28;100.00
50933;BME280;36921;49.006;9.292;2023-05-09T00:18:34;99098.97;;;12.36;100.00
50933;BME280;36921;49.006;9.292;2023-05-09T00:21:01;99096.47;;;12.28;100.00
50933;BME280;36921;49.006;9.292;2023-05-09T00:23:31;99079.75;;;12.18;100.00
50933;BME280;36921;49.006;9.292;2023-05-09T00:25:57;99090.22;;;12.27;100.00
50933;BME280;36921;49.006;9.292;2023-05-09T00:28:22;99097.31;;;12.35;100.00
50933;BME280;36921;49.006;9.292;2023-05-09T00:30:47;99088.97;;;12.30;100.00
50933;BME280;36921;49.006;9.292;2023-05-09T00:33:13;99091.91;;;12.35;100.00
50933;BME280;36921;49.006;9.292;2023-05-09T00:35:39;99102.31;;;12.38;100.00
50933;BME280;36921;49.006;9.292;2023-05-09T00:38:04;99095.84;;;12.33;100.00
50933;BME280;36921;49.006;9.292;2023-05-09T00:40:29;99091.84;;;12.15;100.00
50933;BME280;36921;49.006;9.292;2023-05-09T00:42:55;99091.22;;;12.06;100.00
50933;BME280;36921;49.006;9.292;2023-05-09T00:45:23;99083.50;;;11.90;100.00
50933;BME280;36921;49.006;9.292;2023-05-09T00:47:48;99104.78;;;12.00;100.00
50933;BME280;36921;49.006;9.292;2023-05-09T00:50:13;99079.09;;;11.89;100.00
50933;BME280;36921;49.006;9.292;2023-05-09T00:52:39;99084.72;;;11.94;100.00
50933;BME280;36921;49.006;9.292;2023-05-09T00:55:06;99074.28;;;11.84;100.00
50933;BME280;36921;49.006;9.292;2023-05-09T00:57:32;99084.34;;;11.97;100.00
50933;BME280;36921;49.006;9.292;2023-05-09T00:59:59;99061.75;;;11.83;100.00
50933;BME280;36921;49.006;9.292;2023-05-09T01:02:25;99079.69;;;11.84;100.00
50933;BME280;36921;49.006;9.292;2023-05-09T01:04:51;99072.59;;;11.77;100.00
50933;BME280;36921;49.006;9.292;2023-05-09T01:07:42;99076.00;;;11.92;100.00
50933;BME280;36921;49.006;9.292;2023-05-09T01:12:58;99035.41;;;11.51;100.00
50933;BME280;36921;49.006;9.292;2023-05-09T01:17:58;99073.41;;;11.84;100.00
50933;BME280;36921;49.006;9.292;2023-05-09T01:20:34;99072.59;;;11.77;100.00
50933;BME280;36921;49.006;9.292;2023-05-09T01:26:03;99070.06;;;11.75;100.00
50933;BME280;36921;49.006;9.292;2023-05-09T01:28:39;99069.00;;;11.70;100.00
50933;BME280;36921;49.006;9.292;2023-05-09T01:31:11;99057.06;;;11.57;100.00
50933;BME280;36921;49.006;9.292;2023-05-09T01:33:39;99053.94;;;11.54;100.00
50933;BME280;36921;49.006;9.292;2023-05-09T01:36:11;99071.69;;;11.63;100.00
50933;BME280;36921;49.006;9.292;2023-05-09T01:38:39;99054.19;;;11.59;100.00
50933;BME280;36921;49.006;9.292;2023-05-09T01:41:08;99062.94;;;11.68;100.00
50933;BME280;36921;49.006;9.292;2023-05-09T01:43:37;99043.34;;;11.59;100.00
50933;BME280;36921;49.006;9.292;2023-05-09T01:46:04;99054.81;;;11.68;100.00
50933;BME280;36921;49.006;9.292;2023-05-09T01:48:30;99050.69;;;11.72;100.00
50933;BME280;36921;49.006;9.292;2023-05-09T01:50:56;99041.72;;;11.71;100.00
50933;BME280;36921;49.006;9.292;2023-05-09T01:53:24;99049.63;;;11.66;100.00
50933;BME280;36921;49.006;9.292;2023-05-09T01:55:51;99028.50;;;11.48;100.00
50933;BME280;36921;49.006;9.292;2023-05-09T01:58:17;99037.28;;;11.50;100.00
50933;BME280;36921;49.006;9.292;2023-05-09T02:00:44;99012.81;;;11.37;100.00
50933;BME280;36921;49.006;9.292;2023-05-09T02:03:11;99027.25;;;11.51;100.00
50933;BME280;36921;49.006;9.292;2023-05-09T02:05:37;99023.72;;;11.50;100.00
50933;BME280;36921;49.006;9.292;2023-05-09T02:08:04;99021.63;;;11.46;100.00
50933;BME280;36921;49.006;9.292;2023-05-09T02:10:29;99028.06;;;11.38;100.00
50933;BME280;36921;49.006;9.292;2023-05-09T02:12:55;99027.41;;;11.36;100.00
50933;BME280;36921;49.006;9.292;2023-05-09T02:15:23;99032.84;;;11.36;100.00
50933;BME280;36921;49.006;9.292;2023-05-09T02:17:49;99013.88;;;11.29;100.00
50933;BME280;36921;49.006;9.292;2023-05-09T02:20:14;99027.41;;;11.36;100.00
50933;BME280;36921;49.006;9.292;2023-05-09T02:22:41;99045.00;;;11.53;100.00
50933;BME280;36921;49.006;9.292;2023-05-09T02:25:09;99031.63;;;11.45;100.00
50933;BME280;36921;49.006;9.292;2023-05-09T02:27:37;99022.03;;;11.43;100.00
50933;BME280;36921;49.006;9.292;2023-05-09T02:30:07;99026.63;;;11.49;100.00
50933;BME280;36921;49.006;9.292;2023-05-09T02:32:33;99034.16;;;11.60;100.00
50933;BME280;36921;49.006;9.292;2023-05-09T02:35:00;99039.56;;;11.60;100.00
50933;BME280;36921;49.006;9.292;2023-05-09T02:37:26;99020.78;;;11.52;100.00
50933;BME280;36921;49.006;9.292;2023-05-09T02:39:52;99023.75;;;11.63;100.00
50933;BME280;36921;49.006;9.292;2023-05-09T02:42:22;99006.66;;;11.56;100.00
50933;BME280;36921;49.006;9.292;2023-05-09T02:44:50;99010.19;;;11.57;100.00
50933;BME280;36921;49.006;9.292;2023-05-09T02:47:15;99004.75;;;11.57;100.00
50933;BME280;36921;49.006;9.292;2023-05-09T02:49:40;99014.38;;;11.66;100.00
50933;BME280;36921;49.006;9.292;2023-05-09T02:52:06;98987.44;;;11.51;100.00
50933;BME280;36921;49.006;9.292;2023-05-09T02:54:31;98978.25;;;11.39;100.00
50933;BME280;36921;49.006;9.292;2023-05-09T02:56:56;99003.53;;;11.59;100.00
50933;BME280;36921;49.006;9.292;2023-05-09T02:59:23;98994.75;;;11.51;100.00
50933;BME280;36921;49.006;9.292;2023-05-09T03:01:49;98983.28;;;11.49;100.00
50933;BME280;36921;49.006;9.292;2023-05-09T03:04:14;98982.88;;;11.52;100.00
50933;BME280;36921;49.006;9.292;2023-05-09T03:06:40;98997.91;;;11.68;100.00
50933;BME280;36921;49.006;9.292;2023-05-09T03:09:06;98986.22;;;11.67;100.00
50933;BME280;36921;49.006;9.292;2023-05-09T03:11:31;98980.38;;;11.57;100.00
50933;BME280;36921;49.006;9.292;2023-05-09T03:13:56;98975.56;;;11.52;100.00
50933;BME280;36921;49.006;9.292;2023-05-09T03:16:22;98980.78;;;11.60;100.00
50933;BME280;36921;49.006;9.292;2023-05-09T03:18:47;98994.38;;;11.74;100.00
50933;BME280;36921;49.006;9.292;2023-05-09T03:21:12;98973.94;;;11.71;100.00
50933;BME280;36921;49.006;9.292;2023-05-09T03:23:38;98968.72;;;11.83;100.00
50933;BME280;36921;49.006;9.292;2023-05-09T03:26:03;98967.53;;;11.92;100.00
50933;BME280;36921;49.006;9.292;2023-05-09T03:28:28;98975.81;;;11.84;100.00
50933;BME280;36921;49.006;9.292;2023-05-09T03:30:54;98979.38;;;11.84;100.00
50933;BME280;36921;49.006;9.292;2023-05-09T03:33:19;98952.03;;;11.73;100.00
50933;BME280;36921;49.006;9.292;2023-05-09T03:35:45;98962.06;;;11.79;100.00
50933;BME280;36921;49.006;9.292;2023-05-09T03:38:10;98946.66;;;11.79;100.00
50933;BME280;36921;49.006;9.292;2023-05-09T03:40:36;98936.84;;;11.72;100.00
50933;BME280;36921;49.006;9.292;2023-05-09T03:43:01;98977.94;;;11.82;100.00
50933;BME280;36921;49.006;9.292;2023-05-09T03:45:26;98973.72;;;11.73;100.00
50933;BME280;36921;49.006;9.292;2023-05-09T03:47:52;98976.66;;;11.71;100.00
50933;BME280;36921;49.006;9.292;2023-05-09T03:50:17;98969.78;;;11.69;100.00
50933;BME280;36921;49.006;9.292;2023-05-09T03:52:42;98961.88;;;11.74;100.00
50933;BME280;36921;49.006;9.292;2023-05-09T03:55:08;98952.66;;;11.68;100.00
50933;BME280;36921;49.006;9.292;2023-05-09T03:57:34;98980.66;;;11.89;100.00
50933;BME280;36921;49.006;9.292;2023-05-09T04:00:00;98966.28;;;11.88;100.00
50933;BME280;36921;49.006;9.292;2023-05-09T04:02:25;98979.63;;;11.96;100.00
50933;BME280;36921;49.006;9.292;2023-05-09T04:04:51;98970.47;;;11.97;100.00
50933;BME280;36921;49.006;9.292;2023-05-09T04:07:17;98974.19;;;12.10;100.00
50933;BME280;36921;49.006;9.292;2023-05-09T04:09:43;98939.78;;;12.03;100.00
50933;BME280;36921;49.006;9.292;2023-05-09T04:12:09;98980.25;;;12.32;100.00
50933;BME280;36921;49.006;9.292;2023-05-09T04:14:34;98959.78;;;12.36;100.00
50933;BME280;36921;49.006;9.292;2023-05-09T04:16:59;98979.56;;;12.49;100.00
50933;BME280;36921;49.006;9.292;2023-05-09T04:19:26;98947.88;;;12.43;100.00
50933;BME280;36921;49.006;9.292;2023-05-09T04:21:51;98956.19;;;12.62;100.00
50933;BME280;36921;49.006;9.292;2023-05-09T04:24:16;98923.22;;;12.52;100.00
50933;BME280;36921;49.006;9.292;2023-05-09T04:26:42;98935.03;;;12.77;100.00
50933;BME280;36921;49.006;9.292;2023-05-09T04:29:07;98935.66;;;12.79;100.00
50933;BME280;36921;49.006;9.292;2023-05-09T04:31:32;98926.47;;;12.80;100.00
50933;BME280;36921;49.006;9.292;2023-05-09T04:33:58;98940.38;;;13.04;100.00
50933;BME280;36921;49.006;9.292;2023-05-09T04:36:23;98922.22;;;12.98;100.00
50933;BME280;36921;49.006;9.292;2023-05-09T04:38:48;98940.19;;;12.99;100.00
50933;BME280;36921;49.006;9.292;2023-05-09T04:41:14;98915.53;;;12.93;100.00
50933;BME280;36921;49.006;9.292;2023-05-09T04:43:40;98923.25;;;12.97;100.00
50933;BME280;36921;49.006;9.292;2023-05-09T04:46:06;98956.41;;;13.12;100.00
50933;BME280;36921;49.006;9.292;2023-05-09T04:48:32;98925.97;;;12.97;100.00
50933;BME280;36921;49.006;9.292;2023-05-09T04:50:57;98923.63;;;13.07;100.00
50933;BME280;36921;49.006;9.292;2023-05-09T04:53:22;98954.66;;;13.37;100.00
50933;BME280;36921;49.006;9.292;2023-05-09T04:55:48;98926.03;;;13.35;100.00
50933;BME280;36921;49.006;9.292;2023-05-09T04:58:13;98930.09;;;13.51;100.00
50933;BME280;36921;49.006;9.292;2023-05-09T05:00:38;98935.63;;;13.69;100.00
50933;BME280;36921;49.006;9.292;2023-05-09T05:03:04;98915.38;;;13.65;100.00
50933;BME280;36921;49.006;9.292;2023-05-09T05:05:29;98908.09;;;13.59;100.00
50933;BME280;36921;49.006;9.292;2023-05-09T05:07:55;98906.59;;;13.63;100.00
50933;BME280;36921;49.006;9.292;2023-05-09T05:10:20;98919.66;;;13.79;100.00
50933;BME280;36921;49.006;9.292;2023-05-09T05:12:45;98927.31;;;13.89;100.00
50933;BME280;36921;49.006;9.292;2023-05-09T05:15:11;98937.09;;;13.97;100.00
50933;BME280;36921;49.006;9.292;2023-05-09T05:17:36;98928.94;;;13.97;100.00
50933;BME280;36921;49.006;9.292;2023-05-09T05:20:02;98902.00;;;13.89;100.00
50933;BME280;36921;49.006;9.292;2023-05-09T05:22:30;98924.19;;;14.11;100.00
50933;BME280;36921;49.006;9.292;2023-05-09T05:24:56;98912.38;;;14.23;100.00
50933;BME280;36921;49.006;9.292;2023-05-09T05:27:21;98929.16;;;14.39;100.00
50933;BME280;36921;49.006;9.292;2023-05-09T05:29:46;98926.31;;;14.52;100.00
50933;BME280;36921;49.006;9.292;2023-05-09T05:32:12;98916.38;;;14.83;100.00
50933;BME280;36921;49.006;9.292;2023-05-09T05:34:37;98905.31;;;14.96;100.00
50933;BME280;36921;49.006;9.292;2023-05-09T05:37:03;98905.81;;;15.05;100.00
50933;BME280;36921;49.006;9.292;2023-05-09T05:39:29;98882.25;;;15.10;100.00
50933;BME280;36921;49.006;9.292;2023-05-09T05:41:54;98893.56;;;15.26;100.00
50933;BME280;36921;49.006;9.292;2023-05-09T05:44:19;98872.91;;;15.18;100.00
50933;BME280;36921;49.006;9.292;2023-05-09T05:46:45;98876.06;;;15.45;100.00
50933;BME280;36921;49.006;9.292;2023-05-09T05:49:10;98877.97;;;15.45;100.00
50933;BME280;36921;49.006;9.292;2023-05-09T05:51:35;98876.94;;;15.57;100.00
50933;BME280;36921;49.006;9.292;2023-05-09T05:54:01;98869.19;;;15.73;100.00
50933;BME280;36921;49.006;9.292;2023-05-09T05:56:26;98864.31;;;15.87;100.00
50933;BME280;36921;49.006;9.292;2023-05-09T05:58:51;98875.72;;;16.07;100.00
50933;BME280;36921;49.006;9.292;2023-05-09T06:01:18;98866.81;;;16.12;100.00
50933;BME280;36921;49.006;9.292;2023-05-09T06:03:43;98876.31;;;16.21;100.00
50933;BME280;36921;49.006;9.292;2023-05-09T06:06:09;98856.78;;;16.53;100.00
50933;BME280;36921;49.006;9.292;2023-05-09T06:08:34;98846.44;;;16.78;100.00
50933;BME280;36921;49.006;9.292;2023-05-09T06:11:00;98856.88;;;16.81;100.00
50933;BME280;36921;49.006;9.292;2023-05-09T06:13:25;98858.53;;;16.82;100.00
50933;BME280;36921;49.006;9.292;2023-05-09T06:15:54;98855.09;;;16.75;100.00
50933;BME280;36921;49.006;9.292;2023-05-09T06:18:19;98854.84;;;16.77;100.00
50933;BME280;36921;49.006;9.292;2023-05-09T06:20:45;98842.25;;;16.88;100.00
50933;BME280;36921;49.006;9.292;2023-05-09T06:23:10;98848.75;;;16.98;100.00
50933;BME280;36921;49.006;9.292;2023-05-09T06:25:35;98849.75;;;17.09;100.00
50933;BME280;36921;49.006;9.292;2023-05-09T06:28:00;98828.94;;;17.53;100.00
50933;BME280;36921;49.006;9.292;2023-05-09T06:30:26;98826.63;;;17.96;100.00
50933;BME280;36921;49.006;9.292;2023-05-09T06:32:51;98856.56;;;18.20;100.00
50933;BME280;36921;49.006;9.292;2023-05-09T06:35:17;98844.63;;;18.48;100.00
50933;BME280;36921;49.006;9.292;2023-05-09T06:37:42;98846.53;;;18.69;100.00
50933;BME280;36921;49.006;9.292;2023-05-09T06:40:07;98839.91;;;18.43;100.00
50933;BME280;36921;49.006;9.292;2023-05-09T06:42:33;98832.38;;;18.55;100.00
50933;BME280;36921;49.006;9.292;2023-05-09T06:44:58;98804.22;;;19.36;100.00
50933;BME280;36921;49.006;9.292;2023-05-09T06:47:23;98814.78;;;20.24;100.00
50933;BME280;36921;49.006;9.292;2023-05-09T06:49:49;98816.69;;;20.76;100.00
50933;BME280;36921;49.006;9.292;2023-05-09T06:52:15;98798.38;;;21.28;100.00
50933;BME280;36921;49.006;9.292;2023-05-09T06:54:41;98826.13;;;22.44;100.00
50933;BME280;36921;49.006;9.292;2023-05-09T06:57:06;98808.56;;;24.99;85.64
50933;BME280;36921;49.006;9.292;2023-05-09T06:59:31;98807.59;;;24.71;78.64
50933;BME280;36921;49.006;9.292;2023-05-09T07:01:57;98808.19;;;24.39;83.46
50933;BME280;36921;49.006;9.292;2023-05-09T07:04:22;98807.34;;;22.57;100.00
50933;BME280;36921;49.006;9.292;2023-05-09T07:06:47;98816.03;;;22.84;100.00
50933;BME280;36921;49.006;9.292;2023-05-09T07:09:13;98808.00;;;22.28;100.00
50933;BME280;36921;49.006;9.292;2023-05-09T07:11:41;98797.00;;;21.92;100.00
50933;BME280;36921;49.006;9.292;2023-05-09T07:14:06;98808.91;;;21.62;100.00
50933;BME280;36921;49.006;9.292;2023-05-09T07:16:32;98797.56;;;21.28;100.00
50933;BME280;36921;49.006;9.292;2023-05-09T07:18:57;98791.72;;;20.25;100.00
50933;BME280;36921;49.006;9.292;2023-05-09T07:21:22;98801.06;;;20.29;100.00
50933;BME280;36921;49.006;9.292;2023-05-09T07:23:48;98786.78;;;19.85;100.00
50933;BME280;36921;49.006;9.292;2023-05-09T07:26:13;98777.31;;;19.33;100.00
50933;BME280;36921;49.006;9.292;2023-05-09T07:28:38;98803.03;;;19.27;100.00
50933;BME280;36921;49.006;9.292;2023-05-09T07:31:03;98786.34;;;19.01;100.00
50933;BME280;36921;49.006;9.292;2023-05-09T07:33:30;98789.47;;;19.42;100.00
50933;BME280;36921;49.006;9.292;2023-05-09T07:35:57;98790.19;;;19.33;100.00
50933;BME280;36921;49.006;9.292;2023-05-09T07:38:23;98763.97;;;19.15;100.00
50933;BME280;36921;49.006;9.292;2023-05-09T07:40:48;98777.09;;;19.72;100.00
50933;BME280;36921;49.006;9.292;2023-05-09T07:43:13;98776.41;;;19.92;100.00
50933;BME280;36921;49.006;9.292;2023-05-09T07:45:38;98761.75;;;20.24;100.00
50933;BME280;36921;49.006;9.292;2023-05-09T07:48:04;98766.78;;;20.47;100.00
50933;BME280;36921;49.006;9.292;2023-05-09T07:50:29;98742.81;;;20.32;100.00
50933;BME280;36921;49.006;9.292;2023-05-09T07:52:55;98739.47;;;20.88;100.00
50933;BME280;36921;49.006;9.292;2023-05-09T07:55:20;98753.50;;;21.07;100.00
50933;BME280;36921;49.006;9.292;2023-05-09T07:57:45;98744.44;;;21.17;100.00
50933;BME280;36921;49.006;9.292;2023-05-09T08:00:11;98736.72;;;21.34;100.00
50933;BME280;36921;49.006;9.292;2023-05-09T08:02:36;98732.88;;;21.61;100.00
50933;BME280;36921;49.006;9.292;2023-05-09T08:05:02;98724.13;;;21.43;100.00
50933;BME280;36921;49.006;9.292;2023-05-09T08:07:27;98727.75;;;22.35;100.00
50933;BME280;36921;49.006;9.292;2023-05-09T08:09:52;98708.09;;;23.35;98.04
50933;BME280;36921;49.006;9.292;2023-05-09T08:12:17;98720.56;;;24.15;91.72
50933;BME280;36921;49.006;9.292;2023-05-09T08:14:43;98705.44;;;26.47;77.12
50933;BME280;36921;49.006;9.292;2023-05-09T08:17:08;98720.72;;;27.08;67.91
50933;BME280;36921;49.006;9.292;2023-05-09T08:19:33;98714.13;;;26.82;68.24
50933;BME280;36921;49.006;9.292;2023-05-09T08:21:59;98718.91;;;25.52;70.83
50933;BME280;36921;49.006;9.292;2023-05-09T08:24:24;98697.91;;;23.89;75.22
50933;BME280;36921;49.006;9.292;2023-05-09T08:26:50;98696.09;;;23.79;76.44
50933;BME280;36921;49.006;9.292;2023-05-09T08:29:15;98710.38;;;23.87;78.25
50933;BME280;36921;49.006;9.292;2023-05-09T08:31:41;98686.41;;;23.53;79.90
50933;BME280;36921;49.006;9.292;2023-05-09T08:34:07;98695.88;;;22.68;82.52
50933;BME280;36921;49.006;9.292;2023-05-09T08:36:32;98682.13;;;23.36;80.82
50933;BME280;36921;49.006;9.292;2023-05-09T08:38:58;98694.97;;;22.83;88.19
50933;BME280;36921;49.006;9.292;2023-05-09T08:41:26;98667.91;;;23.24;86.33
50933;BME280;36921;49.006;9.292;2023-05-09T08:43:55;98681.34;;;24.13;83.45
50933;BME280;36921;49.006;9.292;2023-05-09T08:46:27;98667.09;;;25.20;74.85
50933;BME280;36921;49.006;9.292;2023-05-09T08:48:53;98635.59;;;27.26;64.07
50933;BME280;36921;49.006;9.292;2023-05-09T08:51:19;98660.72;;;29.63;58.37
50933;BME280;36921;49.006;9.292;2023-05-09T08:53:45;98646.38;;;29.43;55.34
50933;BME280;36921;49.006;9.292;2023-05-09T08:56:11;98649.81;;;30.97;51.42
50933;BME280;36921;49.006;9.292;2023-05-09T08:58:37;98624.66;;;30.76;51.12
50933;BME280;36921;49.006;9.292;2023-05-09T09:01:03;98609.94;;;31.42;49.27
50933;BME280;36921;49.006;9.292;2023-05-09T09:03:32;98652.19;;;31.99;46.31
50933;BME280;36921;49.006;9.292;2023-05-09T09:05:57;98639.66;;;33.38;44.09
50933;BME280;36921;49.006;9.292;2023-05-09T09:08:24;98642.75;;;34.29;41.69
50933;BME280;36921;49.006;9.292;2023-05-09T09:10:51;98635.25;;;33.85;40.78
50933;BME280;36921;49.006;9.292;2023-05-09T09:13:19;98634.81;;;32.55;42.69
50933;BME280;36921;49.006;9.292;2023-05-09T09:15:45;98634.41;;;33.53;42.37
50933;BME280;36921;49.006;9.292;2023-05-09T09:18:16;98615.44;;;33.18;40.25
50933;BME280;36921;49.006;9.292;2023-05-09T09:20:58;98616.69;;;32.92;40.38
50933;BME280;36921;49.006;9.292;2023-05-09T09:23:27;98632.69;;;30.78;43.42
50933;BME280;36921;49.006;9.292;2023-05-09T09:26:01;98624.13;;;29.00;46.34
50933;BME280;36921;49.006;9.292;2023-05-09T09:28:26;98611.78;;;27.11;50.29
50933;BME280;36921;49.006;9.292;2023-05-09T09:30:52;98618.00;;;27.40;51.25
50933;BME280;36921;49.006;9.292;2023-05-09T09:33:19;98621.06;;;27.29;51.25
50933;BME280;36921;49.006;9.292;2023-05-09T09:35:46;98620.59;;;26.32;53.75
50933;BME280;36921;49.006;9.292;2023-05-09T09:38:12;98613.94;;;26.19;53.95
50933;BME280;36921;49.006;9.292;2023-05-09T09:40:37;98602.53;;;26.21;54.15
50933;BME280;36921;49.006;9.292;2023-05-09T09:43:05;98573.75;;;25.94;54.24
50933;BME280;36921;49.006;9.292;2023-05-09T09:45:31;98567.88;;;25.82;55.29
50933;BME280;36921;49.006;9.292;2023-05-09T09:47:56;98592.75;;;26.37;55.62
50933;BME280;36921;49.006;9.292;2023-05-09T09:50:22;98590.44;;;27.83;51.84
50933;BME280;36921;49.006;9.292;2023-05-09T09:52:50;98596.59;;;29.72;49.86
50933;BME280;36921;49.006;9.292;2023-05-09T09:55:16;98577.13;;;29.07;48.48
50933;BME280;36921;49.006;9.292;2023-05-09T09:57:41;98574.41;;;29.37;48.40
50933;BME280;36921;49.006;9.292;2023-05-09T10:00:12;98577.34;;;29.79;47.70
50933;BME280;36921;49.006;9.292;2023-05-09T10:02:49;98577.91;;;28.21;48.60
50933;BME280;36921;49.006;9.292;2023-05-09T10:05:23;98565.13;;;29.24;48.07
50933;BME280;36921;49.006;9.292;2023-05-09T10:07:50;98564.38;;;29.44;47.14
50933;BME280;36921;49.006;9.292;2023-05-09T10:10:17;98561.25;;;30.14;46.32
50933;BME280;36921;49.006;9.292;2023-05-09T10:12:42;98544.06;;;28.71;47.49
50933;BME280;36921;49.006;9.292;2023-05-09T10:15:09;98539.81;;;30.06;46.81
50933;BME280;36921;49.006;9.292;2023-05-09T10:17:35;98544.75;;;29.70;45.67
50933;BME280;36921;49.006;9.292;2023-05-09T10:20:03;98550.66;;;31.04;44.67
50933;BME280;36921;49.006;9.292;2023-05-09T10:22:31;98526.81;;;31.31;43.01
50933;BME280;36921;49.006;9.292;2023-05-09T10:25:16;98532.69;;;33.08;41.53
50933;BME280;36921;49.006;9.292;2023-05-09T10:27:44;98521.09;;;32.25;41.89
50933;BME280;36921;49.006;9.292;2023-05-09T10:30:18;98518.84;;;31.66;41.29
50933;BME280;36921;49.006;9.292;2023-05-09T10:35:15;98501.31;;;31.20;42.98
50933;BME280;36921;49.006;9.292;2023-05-09T10:37:41;98499.84;;;31.47;42.64
50933;BME280;36921;49.006;9.292;2023-05-09T10:40:08;98499.19;;;31.05;42.73
50933;BME280;36921;49.006;9.292;2023-05-09T10:42:38;98481.31;;;30.51;43.93
50933;BME280;36921;49.006;9.292;2023-05-09T10:45:04;98474.19;;;29.02;45.18
50933;BME280;36921;49.006;9.292;2023-05-09T10:47:30;98476.03;;;29.07;45.45
50933;BME280;36921;49.006;9.292;2023-05-09T10:49:57;98463.03;;;30.00;43.55
50933;BME280;36921;49.006;9.292;2023-05-09T10:52:23;98470.09;;;29.97;44.30
50933;BME280;36921;49.006;9.292;2023-05-09T10:54:57;98463.91;;;31.12;43.05
50933;BME280;36921;49.006;9.292;2023-05-09T10:57:25;98478.13;;;31.19;42.97
50933;BME280;36921;49.006;9.292;2023-05-09T10:59:51;98451.16;;;30.78;43.09
50933;BME280;36921;49.006;9.292;2023-05-09T11:02:20;98460.00;;;30.34;44.56
50933;BME280;36921;49.006;9.292;2023-05-09T11:04:45;98463.31;;;30.07;44.76
50933;BME280;36921;49.006;9.292;2023-05-09T11:07:24;98453.53;;;30.88;44.00
50933;BME280;36921;49.006;9.292;2023-05-09T11:10:06;98454.47;;;30.92;43.45
50933;BME280;36921;49.006;9.292;2023-05-09T11:12:32;98440.19;;;31.18;43.65
50933;BME280;36921;49.006;9.292;2023-05-09T11:15:04;98444.72;;;31.11;42.85
50933;BME280;36921;49.006;9.292;2023-05-09T11:17:30;98431.47;;;30.08;43.84
50933;BME280;36921;49.006;9.292;2023-05-09T11:20:05;98407.81;;;32.07;41.91
50933;BME280;36921;49.006;9.292;2023-05-09T11:22:43;98428.28;;;32.51;42.38
50933;BME280;36921;49.006;9.292;2023-05-09T11:25:12;98431.03;;;33.27;40.30
50933;BME280;36921;49.006;9.292;2023-05-09T11:30:07;98405.84;;;31.95;41.58
50933;BME280;36921;49.006;9.292;2023-05-09T11:32:40;98407.16;;;32.86;40.16
50933;BME280;36921;49.006;9.292;2023-05-09T11:35:06;98393.69;;;32.31;39.87
50933;BME280;36921;49.006;9.292;2023-05-09T11:37:38;98385.59;;;32.14;41.27
50933;BME280;36921;49.006;9.292;2023-05-09T11:40:11;98387.56;;;32.42;40.23
50933;BME280;36921;49.006;9.292;2023-05-09T11:42:41;98383.34;;;32.20;39.97
50933;BME280;36921;49.006;9.292;2023-05-09T11:45:06;98392.63;;;29.31;43.35
50933;BME280;36921;49.006;9.292;2023-05-09T11:47:35;98374.38;;;29.13;44.92
50933;BME280;36921;49.006;9.292;2023-05-09T11:50:00;98359.59;;;30.96;43.03
50933;BME280;36921;49.006;9.292;2023-05-09T11:52:26;98367.13;;;31.32;42.32
50933;BME280;36921;49.006;9.292;2023-05-09T11:54:51;98370.31;;;31.18;41.46
50933;BME280;36921;49.006;9.292;2023-05-09T11:57:17;98357.25;;;32.16;40.97
50933;BME280;36921;49.006;9.292;2023-05-09T11:59:43;98363.88;;;32.67;40.25
50933;BME280;36921;49.006;9.292;2023-05-09T12:02:09;98357.66;;;31.74;40.49
50933;BME280;36921;49.006;9.292;2023-05-09T12:04:35;98333.88;;;32.52;40.09
50933;BME280;36921;49.006;9.292;2023-05-09T12:07:01;98340.44;;;33.23;39.38
50933;BME280;36921;49.006;9.292;2023-05-09T12:09:31;98351.09;;;33.53;39.37
50933;BME280;36921;49.006;9.292;2023-05-09T12:11:57;98331.63;;;33.41;39.33
50933;BME280;36921;49.006;9.292;2023-05-09T12:14:30;98336.91;;;33.46;39.17
50933;BME280;36921;49.006;9.292;2023-05-09T12:16:56;98327.78;;;34.26;38.97
50933;BME280;36921;49.006;9.292;2023-05-09T12:19:23;98343.41;;;32.99;39.40
50933;BME280;36921;49.006;9.292;2023-05-09T12:21:53;98300.66;;;32.38;40.79
50933;BME280;36921;49.006;9.292;2023-05-09T12:24:19;98308.28;;;32.69;40.04
50933;BME280;36921;49.006;9.292;2023-05-09T12:26:47;98308.50;;;33.28;39.52
50933;BME280;36921;49.006;9.292;2023-05-09T12:29:12;98303.44;;;31.26;41.60
50933;BME280;36921;49.006;9.292;2023-05-09T12:31:40;98313.19;;;29.88;43.87
50933;BME280;36921;49.006;9.292;2023-05-09T12:34:05;98283.41;;;30.13;43.92
50933;BME280;36921;49.006;9.292;2023-05-09T12:36:33;98286.47;;;31.06;43.76
50933;BME280;36921;49.006;9.292;2023-05-09T12:38:59;98285.28;;;32.95;41.15
50933;BME280;36921;49.006;9.292;2023-05-09T12:41:24;98293.34;;;33.32;40.33
50933;BME280;36921;49.006;9.292;2023-05-09T12:43:51;98290.16;;;32.99;40.79
50933;BME280;36921;49.006;9.292;2023-05-09T12:46:17;98273.53;;;31.26;42.10
50933;BME280;36921;49.006;9.292;2023-05-09T12:48:44;98255.38;;;30.22;42.98
50933;BME280;36921;49.006;9.292;2023-05-09T12:51:09;98282.50;;;31.07;43.03
50933;BME280;36921;49.006;9.292;2023-05-09T12:53:39;98265.13;;;29.28;45.41
50933;BME280;36921;49.006;9.292;2023-05-09T12:56:15;98282.41;;;29.21;46.00
50933;BME280;36921;49.006;9.292;2023-05-09T12:58:51;98279.00;;;28.09;47.75
50933;BME280;36921;49.006;9.292;2023-05-09T13:01:22;98280.13;;;28.08;48.09
50933;BME280;36921;49.006;9.292;2023-05-09T13:03:52;98263.50;;;27.82;49.75
50933;BME280;36921;49.006;9.292;2023-05-09T13:06:24;98266.81;;;28.31;49.08